Time;durP1;ratioP1;P1;durP2;ratioP2;P2;SDS_P1;SDS_P2;PMS_P1;PMS_P2;Temp;Humidity;BMP_temperature;BMP_pressure;BME280_temperature;BME280_humidity;BME280_pressure;Samples;Min_cycle;Max_cycle;Signal;HPM_P1;HPM_P2
2022/09/21 00:01:39;;;;;;;6.35;1.65;;;;;;;10.20;100.00;102511.81;5030699;28;20053;-54
2022/09/21 00:04:08;;;;;;;8.05;1.90;;;;;;;10.24;100.00;102507.28;5033070;28;20048;-50
2022/09/21 00:06:37;;;;;;;5.10;2.08;;;;;;;10.19;100.00;102511.88;5033436;28;20052;-52
2022/09/21 00:09:08;;;;;;;4.38;1.65;;;;;;;10.14;100.00;102515.53;5031551;28;20072;-54
2022/09/21 00:11:37;;;;;;;6.47;1.92;;;;;;;10.10;100.00;102513.06;5032182;28;20045;-52
2022/09/21 00:14:09;;;;;;;7.60;1.88;;;;;;;10.14;100.00;102517.31;5031960;28;20042;-51
2022/09/21 00:16:40;;;;;;;5.45;1.88;;;;;;;10.20;100.00;102513.59;5012643;28;20054;-52
2022/09/21 00:19:09;;;;;;;6.53;1.98;;;;;;;10.10;100.00;102510.44;5031455;28;20099;-55
2022/09/21 00:21:38;;;;;;;6.25;1.90;;;;;;;10.07;100.00;102508.78;5032390;28;20149;-55
2022/09/21 00:24:07;;;;;;;6.32;2.03;;;;;;;10.10;100.00;102513.06;5031932;28;20365;-54
2022/09/21 00:26:38;;;;;;;6.70;1.90;;;;;;;10.02;100.00;102509.88;5031600;28;20042;-54
2022/09/21 00:29:07;;;;;;;6.68;1.77;;;;;;;10.05;100.00;102507.13;5014312;28;20053;-54
2022/09/21 00:31:40;;;;;;;5.68;1.73;;;;;;;9.93;100.00;102511.06;5029191;28;20634;-54
2022/09/21 00:34:08;;;;;;;7.78;1.90;;;;;;;10.01;100.00;102505.50;5031854;28;20037;-53
2022/09/21 00:36:37;;;;;;;6.38;1.90;;;;;;;9.87;100.00;102509.53;5014232;28;20052;-52
2022/09/21 00:39:05;;;;;;;4.68;2.03;;;;;;;9.88;100.00;102513.84;5031844;28;20443;-53
2022/09/21 00:41:34;;;;;;;6.50;1.80;;;;;;;9.91;100.00;102515.50;5031189;28;20049;-51
2022/09/21 00:44:36;;;;;;;6.88;1.75;;;;;;;9.82;100.00;102516.69;5031573;28;20045;-53
2022/09/21 00:47:10;;;;;;;6.03;1.65;;;;;;;9.70;100.00;102517.13;4949359;29;20082;-53
2022/09/21 00:49:40;;;;;;;8.02;1.83;;;;;;;9.71;100.00;102516.22;4951418;29;20126;-54
2022/09/21 00:52:13;;;;;;;6.18;1.60;;;;;;;9.62;100.00;102514.75;4992209;28;20057;-54
2022/09/21 00:54:46;;;;;;;5.57;1.65;;;;;;;9.60;100.00;102517.44;5031866;28;20582;-54
2022/09/21 00:57:17;;;;;;;5.85;1.77;;;;;;;9.49;100.00;102516.97;5030780;28;20172;-54
2022/09/21 00:59:45;;;;;;;6.10;1.75;;;;;;;9.52;100.00;102524.72;5013918;28;20057;-50
2022/09/21 01:02:15;;;;;;;9.27;2.22;;;;;;;9.47;100.00;102524.03;5030070;28;20049;-54
2022/09/21 01:04:45;;;;;;;5.00;1.70;;;;;;;9.45;100.00;102521.44;5031642;28;20053;-52
2022/09/21 01:07:17;;;;;;;3.67;1.83;;;;;;;9.41;100.00;102519.84;5031228;28;20045;-50
2022/09/21 01:09:50;;;;;;;6.60;1.80;;;;;;;9.39;100.00;102516.38;5031789;28;20050;-52
2022/09/21 01:12:33;;;;;;;5.50;1.80;;;;;;;9.39;100.00;102529.53;5031100;28;20059;-55
2022/09/21 01:15:20;;;;;;;5.10;1.77;;;;;;;9.29;100.00;102518.47;5031662;28;20057;-53
2022/09/21 01:17:58;;;;;;;6.65;1.90;;;;;;;9.32;100.00;102524.53;5011958;28;20053;-54
2022/09/21 01:21:02;;;;;;;5.65;1.90;;;;;;;9.17;100.00;102518.88;5030820;28;20072;-52
2022/09/21 01:23:57;;;;;;;6.43;1.85;;;;;;;9.16;100.00;102521.56;5030670;28;20064;-52
2022/09/21 01:26:37;;;;;;;7.07;2.38;;;;;;;9.19;100.00;102516.19;4983823;28;20052;-53
2022/09/21 01:29:17;;;;;;;3.75;1.70;;;;;;;9.18;100.00;102517.97;5029848;28;20049;-52
2022/09/21 01:31:50;;;;;;;5.07;1.70;;;;;;;9.14;100.00;102518.97;5024441;28;20419;-54
2022/09/21 01:34:26;;;;;;;7.72;2.00;;;;;;;9.17;100.00;102521.50;5029772;28;20488;-54
2022/09/21 01:36:59;;;;;;;6.10;1.80;;;;;;;9.08;100.00;102519.16;5031562;28;20049;-53
2022/09/21 01:39:30;;;;;;;4.82;1.77;;;;;;;9.10;100.00;102525.25;5013058;28;20053;-54
2022/09/21 01:42:00;;;;;;;4.70;1.77;;;;;;;9.02;100.00;102530.72;5030576;28;20049;-53
2022/09/21 01:44:33;;;;;;;5.45;1.80;;;;;;;9.06;100.00;102528.88;5012889;28;20144;-53
2022/09/21 01:47:03;;;;;;;4.85;1.65;;;;;;;8.93;100.00;102531.88;5029425;28;20076;-53
2022/09/21 01:49:36;;;;;;;9.20;2.53;;;;;;;8.83;100.00;102529.59;5030650;28;20053;-54
2022/09/21 01:52:11;;;;;;;4.45;1.75;;;;;;;8.80;100.00;102530.53;5012468;28;20045;-54
2022/09/21 01:54:46;;;;;;;5.75;2.03;;;;;;;8.77;100.00;102522.78;5030233;28;20046;-53
2022/09/21 01:57:23;;;;;;;6.18;1.88;;;;;;;8.78;100.00;102516.59;5029910;28;20137;-51
2022/09/21 01:59:55;;;;;;;5.85;1.80;;;;;;;8.71;100.00;102515.06;5030668;28;20048;-52
2022/09/21 02:02:31;;;;;;;3.60;1.77;;;;;;;8.75;100.00;102524.56;5028515;28;20084;-52
2022/09/21 02:05:02;;;;;;;7.07;2.05;;;;;;;8.64;100.00;102511.78;5030497;28;20034;-54
2022/09/21 02:07:34;;;;;;;5.70;1.95;;;;;;;8.74;100.00;102517.59;5030258;28;20464;-53
2022/09/21 02:10:04;;;;;;;3.85;1.77;;;;;;;8.75;100.00;102519.31;5030337;28;20045;-52
2022/09/21 02:12:32;;;;;;;4.57;1.77;;;;;;;8.67;100.00;102516.06;5029883;28;20095;-52
2022/09/21 02:15:03;;;;;;;6.03;1.98;;;;;;;8.60;100.00;102518.91;5013060;28;20374;-51
2022/09/21 02:17:42;;;;;;;5.00;1.70;;;;;;;8.60;100.00;102515.41;5028781;28;20489;-51
2022/09/21 02:20:19;;;;;;;6.82;1.95;;;;;;;8.56;100.00;102519.91;5030235;28;20508;-52
2022/09/21 02:22:59;;;;;;;4.75;1.95;;;;;;;8.47;100.00;102522.78;5030428;28;20053;-50
2022/09/21 02:25:36;;;;;;;5.10;1.85;;;;;;;8.46;100.00;102516.66;5030639;28;20037;-54
2022/09/21 02:28:11;;;;;;;3.67;1.52;;;;;;;8.47;100.00;102520.16;5029590;28;20061;-53
2022/09/21 02:30:51;;;;;;;4.18;1.65;;;;;;;8.37;100.00;102519.56;5030167;28;20079;-51
2022/09/21 02:33:27;;;;;;;5.28;1.70;;;;;;;8.33;100.00;102522.28;5029601;28;20136;-53
2022/09/21 02:36:03;;;;;;;4.72;1.63;;;;;;;8.31;100.00;102516.25;5030659;28;20045;-50
2022/09/21 02:38:37;;;;;;;5.72;2.00;;;;;;;8.28;100.00;102517.19;5030095;28;20041;-50
2022/09/21 02:41:11;;;;;;;4.55;1.77;;;;;;;8.21;100.00;102513.88;5029422;28;20081;-50
2022/09/21 02:43:45;;;;;;;4.57;1.63;;;;;;;8.19;100.00;102513.06;5012688;28;20067;-50
2022/09/21 02:46:19;;;;;;;3.40;1.58;;;;;;;8.19;100.00;102515.69;5027584;28;20042;-53
2022/09/21 02:48:51;;;;;;;4.40;1.55;;;;;;;8.08;100.00;102513.34;5029789;28;20064;-52
2022/09/21 02:51:25;;;;;;;7.07;1.80;;;;;;;8.06;100.00;102509.09;5028882;28;20123;-50
2022/09/21 02:53:55;;;;;;;6.80;1.90;;;;;;;8.08;100.00;102515.13;5030336;28;20435;-52
2022/09/21 02:56:24;;;;;;;4.95;2.05;;;;;;;7.92;100.00;102512.94;5033571;28;20037;-49
2022/09/21 02:58:58;;;;;;;3.53;1.70;;;;;;;7.94;100.00;102511.13;5034143;28;20380;-49
2022/09/21 03:01:29;;;;;;;5.53;1.98;;;;;;;7.91;100.00;102521.69;5031348;28;20484;-48
2022/09/21 03:03:57;;;;;;;6.55;1.90;;;;;;;7.97;100.00;102514.56;5034046;28;20140;-51
2022/09/21 03:06:26;;;;;;;3.28;1.77;;;;;;;7.93;100.00;102506.81;5031246;28;20132;-49
2022/09/21 03:08:56;;;;;;;7.22;1.70;;;;;;;7.93;100.00;102516.41;5034156;28;20431;-49
2022/09/21 03:11:25;;;;;;;6.03;1.98;;;;;;;7.84;100.00;102517.53;5032925;28;20041;-50
2022/09/21 03:13:53;;;;;;;5.80;1.77;;;;;;;7.91;100.00;102519.06;5016353;28;20068;-50
2022/09/21 03:16:22;;;;;;;7.85;2.00;;;;;;;7.81;100.00;102520.22;5031674;28;20508;-51
2022/09/21 03:18:55;;;;;;;3.70;1.85;;;;;;;7.80;100.00;102523.75;5033589;28;20054;-53
2022/09/21 03:21:23;;;;;;;5.22;1.70;;;;;;;7.83;100.00;102523.66;5032770;28;20054;-50
2022/09/21 03:23:51;;;;;;;5.45;2.00;;;;;;;7.76;100.00;102519.50;5033573;28;20041;-51
2022/09/21 03:26:21;;;;;;;4.13;1.90;;;;;;;7.68;100.00;102517.06;5032551;28;20060;-53
2022/09/21 03:28:49;;;;;;;2.22;1.48;;;;;;;7.71;100.00;102529.22;5033524;28;20064;-50
2022/09/21 03:31:17;;;;;;;5.00;1.80;;;;;;;7.66;100.00;102528.50;5031062;28;20144;-52
2022/09/21 03:33:45;;;;;;;4.60;1.90;;;;;;;7.66;100.00;102518.84;5033452;28;20049;-51
2022/09/21 03:36:15;;;;;;;6.43;1.80;;;;;;;7.61;100.00;102531.25;5032924;28;20041;-50
2022/09/21 03:38:43;;;;;;;6.93;2.03;;;;;;;7.55;100.00;102529.63;5033535;28;20381;-49
2022/09/21 03:41:14;;;;;;;3.20;1.42;;;;;;;7.55;100.00;102526.13;5032755;28;20140;-51
2022/09/21 03:43:42;;;;;;;4.93;1.90;;;;;;;7.49;100.00;102524.53;5033135;28;20060;-52
2022/09/21 03:46:10;;;;;;;3.60;1.90;;;;;;;7.58;100.00;102528.66;5031150;28;20160;-52
2022/09/21 03:48:39;;;;;;;4.93;1.73;;;;;;;7.58;100.00;102531.28;5032891;28;20053;-51
2022/09/21 03:51:07;;;;;;;4.97;1.92;;;;;;;7.59;100.00;102525.16;5031916;28;20056;-51
2022/09/21 03:53:37;;;;;;;4.03;1.90;;;;;;;7.52;100.00;102527.06;5032688;28;20046;-50
2022/09/21 03:56:05;;;;;;;4.80;1.90;;;;;;;7.41;100.00;102535.19;5032217;28;20571;-53
2022/09/21 03:58:33;;;;;;;6.85;2.03;;;;;;;7.38;100.00;102534.44;5033169;28;20046;-52
2022/09/21 04:01:02;;;;;;;5.38;2.13;;;;;;;7.40;100.00;102530.00;5031105;28;20037;-51
2022/09/21 04:03:30;;;;;;;5.40;1.98;;;;;;;7.38;100.00;102537.06;5032617;28;20075;-49
2022/09/21 04:05:58;;;;;;;6.70;2.00;;;;;;;7.34;100.00;102541.50;5032497;28;20104;-46
2022/09/21 04:08:26;;;;;;;7.65;1.90;;;;;;;7.28;100.00;102537.28;5015091;28;20045;-50
2022/09/21 04:10:56;;;;;;;5.47;1.90;;;;;;;7.22;100.00;102528.72;5032348;28;20432;-51
2022/09/21 04:13:24;;;;;;;5.03;1.70;;;;;;;7.29;100.00;102530.28;5032563;28;20050;-49
2022/09/21 04:15:52;;;;;;;5.57;2.08;;;;;;;7.25;100.00;102526.00;5031110;28;20104;-48
2022/09/21 04:18:23;;;;;;;4.82;1.90;;;;;;;7.19;100.00;102528.78;5031738;28;20082;-53
2022/09/21 04:20:51;;;;;;;5.93;1.95;;;;;;;7.14;100.00;102528.03;5032070;28;20050;-51
2022/09/21 04:23:19;;;;;;;5.55;2.10;;;;;;;7.07;100.00;102524.69;5032543;28;20526;-51
2022/09/21 04:25:50;;;;;;;5.05;1.90;;;;;;;7.08;100.00;102526.44;5031993;28;20041;-52
2022/09/21 04:28:19;;;;;;;4.68;1.80;;;;;;;7.08;100.00;102526.44;5032045;28;20045;-47
2022/09/21 04:30:47;;;;;;;6.03;2.00;;;;;;;7.08;100.00;102531.66;5031588;28;20151;-49
2022/09/21 04:33:16;;;;;;;3.35;1.50;;;;;;;7.04;100.00;102530.00;5031246;28;20049;-53
2022/09/21 04:35:44;;;;;;;7.22;1.90;;;;;;;7.00;100.00;102534.44;5032073;28;20433;-53
2022/09/21 04:38:15;;;;;;;6.03;1.67;;;;;;;6.93;100.00;102531.09;5031780;28;20050;-49
2022/09/21 04:40:43;;;;;;;5.13;1.83;;;;;;;6.94;100.00;102534.59;5031783;28;20095;-49
2022/09/21 04:43:11;;;;;;;3.95;1.65;;;;;;;6.97;100.00;102537.13;5031486;28;20111;-52
2022/09/21 04:45:41;;;;;;;5.28;1.88;;;;;;;7.03;100.00;102538.75;5031569;28;20049;-49
2022/09/21 04:48:09;;;;;;;5.80;1.73;;;;;;;6.96;100.00;102540.63;5029349;28;20132;-50
2022/09/21 04:50:38;;;;;;;4.90;1.75;;;;;;;6.87;100.00;102539.09;5031648;28;20085;-50
2022/09/21 04:53:06;;;;;;;6.07;1.90;;;;;;;6.90;100.00;102543.41;5031521;28;20038;-51
2022/09/21 04:55:34;;;;;;;6.18;2.20;;;;;;;6.82;100.00;102543.56;5031546;28;20554;-50
2022/09/21 04:58:02;;;;;;;4.82;2.22;;;;;;;6.80;100.00;102545.34;5031676;28;20396;-49
2022/09/21 05:00:30;;;;;;;5.30;2.05;;;;;;;6.73;100.00;102544.63;5031664;28;20503;-50
2022/09/21 05:03:00;;;;;;;4.88;2.10;;;;;;;6.73;100.00;102543.78;5029913;28;20073;-53
2022/09/21 05:05:28;;;;;;;6.00;2.20;;;;;;;6.71;100.00;102553.41;5031464;28;20516;-52
2022/09/21 05:07:56;;;;;;;5.75;2.03;;;;;;;6.79;100.00;102550.63;5031855;28;20038;-50
2022/09/21 05:10:23;;;;;;;7.40;2.20;;;;;;;6.80;100.00;102558.44;5031500;28;20053;-49
2022/09/21 05:12:51;;;;;;;7.18;2.40;;;;;;;6.86;100.00;102563.53;5030968;28;20053;-52
2022/09/21 05:15:21;;;;;;;5.65;2.30;;;;;;;6.73;100.00;102565.53;5030979;28;20111;-50
2022/09/21 05:17:49;;;;;;;7.15;2.30;;;;;;;6.78;100.00;102570.69;5028999;28;20041;-50
2022/09/21 05:20:18;;;;;;;5.00;1.83;;;;;;;6.79;100.00;102567.19;5013047;28;20061;-50
2022/09/21 05:22:46;;;;;;;4.82;2.17;;;;;;;6.74;100.00;102567.28;5031324;28;20079;-50
2022/09/21 05:25:14;;;;;;;4.53;2.10;;;;;;;6.71;100.00;102572.56;5030914;28;20431;-51
2022/09/21 05:27:42;;;;;;;8.57;2.70;;;;;;;6.74;100.00;102566.41;5030604;28;20042;-51
2022/09/21 05:30:12;;;;;;;5.82;2.38;;;;;;;6.63;100.00;102573.66;5012697;28;20049;-49
2022/09/21 05:32:48;;;;;;;6.05;2.22;;;;;;;6.68;100.00;102577.00;5028524;28;20045;-51
2022/09/21 05:35:30;;;;;;;5.65;2.20;;;;;;;6.65;100.00;102577.91;5030438;28;20057;-50
2022/09/21 05:38:04;;;;;;;8.05;2.22;;;;;;;6.68;100.00;102572.66;5031459;28;20593;-48
2022/09/21 05:40:33;;;;;;;8.50;2.50;;;;;;;6.70;100.00;102577.84;5031188;28;20053;-52
2022/09/21 05:43:02;;;;;;;7.43;2.35;;;;;;;6.70;100.00;102580.44;5030442;28;20049;-49
2022/09/21 05:45:34;;;;;;;7.32;2.70;;;;;;;6.71;100.00;102577.81;5031204;28;20049;-49
2022/09/21 05:48:11;;;;;;;7.90;2.50;;;;;;;6.73;100.00;102583.84;5028994;28;20052;-49
2022/09/21 05:50:53;;;;;;;5.97;2.40;;;;;;;6.67;100.00;102580.53;5030484;28;20076;-48
2022/09/21 05:53:44;;;;;;;10.73;2.78;;;;;;;6.63;100.00;102584.09;5030670;28;20049;-48
2022/09/21 05:56:21;;;;;;;9.68;2.40;;;;;;;6.63;100.00;102584.94;5029964;28;20447;-51
2022/09/21 05:58:59;;;;;;;6.13;2.35;;;;;;;6.58;100.00;102592.03;5030770;28;20686;-49
2022/09/21 06:01:40;;;;;;;5.15;2.15;;;;;;;6.57;100.00;102588.56;5028179;28;20042;-51
2022/09/21 06:04:12;;;;;;;6.43;2.42;;;;;;;6.62;100.00;102596.28;5030366;28;20415;-49
2022/09/21 06:06:41;;;;;;;8.98;3.10;;;;;;;6.65;100.00;102595.38;5030692;28;20096;-49
2022/09/21 06:09:09;;;;;;;9.00;3.25;;;;;;;6.59;100.00;102596.38;5030553;28;20132;-48
2022/09/21 06:11:37;;;;;;;8.18;3.10;;;;;;;6.64;100.00;102596.25;5029813;28;20037;-51
2022/09/21 06:14:05;;;;;;;12.77;3.72;;;;;;;6.73;100.00;102603.91;5029977;28;20095;-49
2022/09/21 06:16:38;;;;;;;13.95;5.25;;;;;;;6.66;100.00;102608.41;5028717;28;20084;-49
2022/09/21 06:19:06;;;;;;;14.65;4.95;;;;;;;6.66;100.00;102613.63;5030332;28;20045;-48
2022/09/21 06:21:34;;;;;;;8.05;3.13;;;;;;;6.65;100.00;102609.28;5030360;28;20045;-52
2022/09/21 06:24:04;;;;;;;7.20;3.42;;;;;;;6.70;100.00;102615.28;5030485;28;20064;-53
2022/09/21 06:26:32;;;;;;;9.48;3.58;;;;;;;6.79;100.00;102614.25;5030078;28;20073;-48
2022/09/21 06:29:00;;;;;;;8.70;3.53;;;;;;;7.01;100.00;102617.28;5030345;28;20077;-48
2022/09/21 06:31:28;;;;;;;8.43;3.97;;;;;;;7.02;100.00;102619.00;5028512;28;20098;-50
2022/09/21 06:33:56;;;;;;;8.63;3.88;;;;;;;7.08;100.00;102618.84;5030572;28;20038;-50
2022/09/21 06:36:24;;;;;;;8.45;4.15;;;;;;;7.18;100.00;102618.66;5030179;28;20096;-49
2022/09/21 06:38:52;;;;;;;12.90;4.72;;;;;;;7.23;100.00;102619.41;5030497;28;20119;-52
2022/09/21 06:41:22;;;;;;;10.95;5.63;;;;;;;7.30;100.00;102617.53;5029511;28;20137;-53
2022/09/21 06:43:54;;;;;;;13.65;6.43;;;;;;;7.42;100.00;102615.47;5029826;28;20049;-49
2022/09/21 06:46:22;;;;;;;14.70;6.73;;;;;;;7.47;100.00;102614.50;5028245;28;20097;-51
2022/09/21 06:48:50;;;;;;;16.23;6.80;;;;;;;7.60;100.00;102619.38;5012458;28;20152;-51
2022/09/21 06:51:20;;;;;;;12.77;6.10;;;;;;;7.67;100.00;102616.63;5029534;28;20092;-49
2022/09/21 06:53:48;;;;;;;15.68;6.55;;;;;;;7.73;100.00;102619.09;5012674;28;20092;-50
2022/09/21 06:56:16;;;;;;;18.05;7.60;;;;;;;7.84;100.00;102622.31;5029739;28;20049;-51
2022/09/21 06:58:46;;;;;;;14.77;6.65;;;;;;;7.99;100.00;102620.19;5029479;28;20049;-51
2022/09/21 07:01:15;;;;;;;12.95;7.15;;;;;;;8.11;100.00;102617.25;5027890;28;20053;-51
2022/09/21 07:03:44;;;;;;;13.45;7.18;;;;;;;8.29;100.00;102608.03;5029894;28;20057;-50
2022/09/21 07:06:14;;;;;;;12.13;7.03;;;;;;;8.41;100.00;102617.31;5029862;28;20085;-51
2022/09/21 07:08:43;;;;;;;14.13;6.90;;;;;;;8.58;100.00;102609.88;5030204;28;20050;-50
2022/09/21 07:11:31;;;;;;;16.27;6.72;;;;;;;8.78;100.00;102619.78;5029198;28;20042;-50
2022/09/21 07:14:02;;;;;;;14.70;6.40;;;;;;;8.98;100.00;102615.69;5029691;28;20049;-50
2022/09/21 07:16:32;;;;;;;13.25;6.85;;;;;;;9.22;100.00;102619.34;5028118;28;20112;-54
2022/09/21 07:19:00;;;;;;;12.18;6.78;;;;;;;9.42;100.00;102615.22;5029762;28;20108;-52
2022/09/21 07:21:38;;;;;;;12.38;7.20;;;;;;;9.57;100.00;102620.00;5029851;28;20263;-51
2022/09/21 07:24:06;;;;;;;14.55;7.25;;;;;;;9.85;100.00;102615.59;5029506;28;20049;-51
2022/09/21 07:26:39;;;;;;;16.80;6.68;;;;;;;10.11;100.00;102617.31;5029427;28;20054;-49
2022/09/21 07:29:08;;;;;;;12.52;6.18;;;;;;;10.28;100.00;102614.06;5029654;28;20140;-50
2022/09/21 07:31:37;;;;;;;15.65;6.03;;;;;;;10.37;100.00;102613.78;5028018;28;20139;-52
2022/09/21 07:34:05;;;;;;;12.93;5.90;;;;;;;10.47;100.00;102619.56;5029302;28;20103;-50
2022/09/21 07:36:33;;;;;;;11.65;6.00;;;;;;;10.71;100.00;102623.06;5029826;28;20037;-52
2022/09/21 07:39:01;;;;;;;16.23;6.80;;;;;;;10.84;100.00;102618.22;5029516;28;20053;-51
2022/09/21 07:41:30;;;;;;;12.95;6.05;;;;;;;11.15;100.00;102617.00;5031564;28;20053;-54
2022/09/21 07:43:58;;;;;;;11.25;5.65;;;;;;;11.44;100.00;102607.13;5033320;28;20049;-51
2022/09/21 07:46:27;;;;;;;10.85;5.22;;;;;;;11.55;100.00;102609.28;5031209;28;20045;-52
2022/09/21 07:48:56;;;;;;;10.88;5.15;;;;;;;11.66;100.00;102617.63;5033089;28;20370;-51
2022/09/21 07:51:24;;;;;;;8.00;4.63;;;;;;;11.89;100.00;102616.66;5032470;28;20508;-53
2022/09/21 07:53:56;;;;;;;10.70;4.93;;;;;;;12.02;100.00;102613.53;5033290;28;20566;-50
2022/09/21 07:56:25;;;;;;;9.32;4.47;;;;;;;12.15;100.00;102602.38;5032303;28;20049;-51
2022/09/21 07:59:07;;;;;;;8.38;4.25;;;;;;;12.31;100.00;102604.31;5033122;28;20073;-52
2022/09/21 08:01:39;;;;;;;11.27;4.10;;;;;;;12.58;100.00;102609.28;5031090;28;20080;-52
2022/09/21 08:04:08;;;;;;;9.75;4.13;;;;;;;12.98;100.00;102610.94;5032608;28;20115;-52
2022/09/21 08:06:38;;;;;;;10.57;4.60;;;;;;;13.09;100.00;102605.13;5033160;28;20045;-52
2022/09/21 08:09:07;;;;;;;9.27;4.65;;;;;;;13.15;100.00;102615.41;5014556;28;20115;-53
2022/09/21 08:11:36;;;;;;;10.00;4.00;;;;;;;13.28;100.00;102610.38;5031961;28;20523;-55
2022/09/21 08:14:04;;;;;;;10.90;3.53;;;;;;;13.53;100.00;102609.22;5032519;28;20084;-55
2022/09/21 08:16:33;;;;;;;6.35;4.00;;;;;;;13.66;100.00;102607.66;5031107;28;20500;-56
2022/09/21 08:19:04;;;;;;;11.43;4.22;;;;;;;13.80;100.00;102608.78;5032135;28;20053;-53
2022/09/21 08:21:33;;;;;;;9.35;3.67;;;;;;;14.12;100.00;102609.72;5031969;28;20492;-54
2022/09/21 08:24:01;;;;;;;7.53;3.40;;;;;;;14.25;100.00;102606.44;5014960;28;20419;-55
2022/09/21 08:26:29;;;;;;;7.50;3.60;;;;;;;14.42;100.00;102606.41;5031918;28;20061;-54
2022/09/21 08:28:57;;;;;;;9.55;3.65;;;;;;;14.62;100.00;102605.34;5032368;28;20042;-54
2022/09/21 08:31:26;;;;;;;8.35;3.60;;;;;;;14.75;100.00;102610.84;5030087;28;20049;-54
2022/09/21 08:33:56;;;;;;;8.73;4.10;;;;;;;14.93;99.20;102622.22;5014713;28;20088;-54
2022/09/21 08:36:26;;;;;;;10.73;3.33;;;;;;;14.86;100.00;102615.53;5032013;28;20045;-55
2022/09/21 08:38:55;;;;;;;8.15;3.83;;;;;;;14.96;98.03;102614.09;5032058;28;20049;-54
2022/09/21 08:41:32;;;;;;;10.40;3.53;;;;;;;15.18;98.24;102610.25;5031148;28;20046;-54
2022/09/21 08:44:11;;;;;;;8.10;3.05;;;;;;;15.35;96.21;102617.22;5032000;28;20064;-53
2022/09/21 08:46:41;;;;;;;9.35;3.92;;;;;;;15.62;94.63;102611.28;5030852;28;20557;-56
2022/09/21 08:49:14;;;;;;;11.10;3.50;;;;;;;15.53;93.11;102602.06;5013938;28;20063;-54
2022/09/21 08:51:49;;;;;;;10.65;3.83;;;;;;;15.70;95.22;102612.50;5030351;28;20507;-54
2022/09/21 08:54:25;;;;;;;8.68;3.47;;;;;;;15.64;91.84;102614.69;5031878;28;20038;-55
2022/09/21 08:56:54;;;;;;;9.18;2.78;;;;;;;15.84;92.97;102610.88;5031449;28;20542;-55
2022/09/21 08:59:33;;;;;;;8.98;2.67;;;;;;;16.12;89.59;102617.19;5031821;28;20041;-55
2022/09/21 09:02:18;;;;;;;7.47;2.80;;;;;;;16.20;89.20;102618.41;5029914;28;20414;-55
2022/09/21 09:04:58;;;;;;;7.80;1.98;;;;;;;16.39;85.22;102615.50;5031541;28;20403;-57
2022/09/21 09:07:48;;;;;;;6.80;2.10;;;;;;;16.57;80.19;102628.56;5031504;28;20843;-57
2022/09/21 09:10:31;;;;;;;6.13;2.08;;;;;;;16.66;83.22;102620.03;5031482;28;20427;-57
2022/09/21 09:13:12;;;;;;;11.10;2.78;;;;;;;16.79;82.99;102619.25;5031198;28;20049;-55
2022/09/21 09:16:07;;;;;;;6.72;2.08;;;;;;;17.01;82.37;102626.72;5031556;28;20061;-56
2022/09/21 09:18:43;;;;;;;7.80;2.30;;;;;;;17.10;81.78;102625.28;5030903;28;20080;-55
2022/09/21 09:21:16;;;;;;;6.68;2.03;;;;;;;17.17;80.46;102629.25;5030396;28;20119;-53
2022/09/21 09:24:02;;;;;;;6.53;2.13;;;;;;;17.55;80.61;102633.84;5031298;28;20076;-56
2022/09/21 09:26:36;;;;;;;8.23;1.95;;;;;;;17.65;79.13;102634.09;5030895;28;20068;-56
2022/09/21 09:29:12;;;;;;;8.20;2.13;;;;;;;17.64;77.39;102635.91;5031076;28;20041;-56
2022/09/21 09:31:41;;;;;;;9.15;2.20;;;;;;;17.70;75.51;102632.81;5029367;28;20049;-55
2022/09/21 09:34:13;;;;;;;9.63;1.92;;;;;;;17.91;74.62;102627.00;5013313;28;20041;-56
2022/09/21 09:36:46;;;;;;;8.23;2.25;;;;;;;18.10;74.63;102631.09;5031192;28;20092;-56
2022/09/21 09:39:29;;;;;;;9.65;1.83;;;;;;;18.18;72.50;102623.44;5031198;28;20129;-54
2022/09/21 09:42:21;;;;;;;8.57;2.20;;;;;;;18.39;73.35;102621.06;5030798;28;20053;-55
2022/09/21 09:45:30;;;;;;;9.02;1.90;;;;;;;18.58;70.00;102625.94;5031112;28;20053;-54
2022/09/21 09:48:09;;;;;;;6.13;1.52;;;;;;;18.58;69.89;102620.59;4967945;28;20089;-54
2022/09/21 09:50:41;;;;;;;6.85;1.80;;;;;;;18.75;67.69;102617.59;4969518;28;20059;-55
2022/09/21 09:53:13;;;;;;;9.52;1.73;;;;;;;19.15;64.92;102613.00;5006686;28;20061;-55
2022/09/21 09:55:45;;;;;;;7.60;1.80;;;;;;;19.36;64.52;102616.75;5030967;28;20081;-55
2022/09/21 09:58:19;;;;;;;7.43;1.50;;;;;;;19.49;59.16;102613.16;5030603;28;20443;-56
2022/09/21 10:00:51;;;;;;;8.70;1.80;;;;;;;19.58;60.70;102615.97;5029776;28;20050;-56
2022/09/21 10:03:22;;;;;;;7.65;1.73;;;;;;;19.48;60.00;102619.44;5029662;28;20523;-56
2022/09/21 10:05:51;;;;;;;8.48;1.75;;;;;;;19.51;59.28;102619.22;5012803;28;20111;-56
2022/09/21 10:08:31;;;;;;;7.88;1.98;;;;;;;19.31;58.73;102616.25;5030577;28;20120;-57
2022/09/21 10:11:01;;;;;;;8.63;1.85;;;;;;;19.72;59.47;102614.91;5012442;28;20136;-57
2022/09/21 10:13:31;;;;;;;7.90;1.60;;;;;;;19.55;57.05;102615.34;5030687;28;20042;-57
2022/09/21 10:16:02;;;;;;;7.07;1.42;;;;;;;18.90;58.14;102604.16;5028732;28;20388;-56
2022/09/21 10:18:37;;;;;;;8.98;1.50;;;;;;;18.78;59.45;102610.34;5030543;28;20500;-56
2022/09/21 10:21:08;;;;;;;9.30;2.03;;;;;;;18.82;60.28;102609.16;5029517;28;20053;-56
2022/09/21 10:23:38;;;;;;;6.65;1.50;;;;;;;18.75;59.74;102604.25;5030603;28;20484;-59
2022/09/21 10:26:10;;;;;;;6.03;1.77;;;;;;;18.89;59.92;102605.09;5012196;28;20143;-58
2022/09/21 10:28:56;;;;;;;9.90;2.20;;;;;;;18.83;59.61;102598.38;5030569;28;20056;-58
2022/09/21 10:31:26;;;;;;;6.78;1.60;;;;;;;19.12;60.78;102603.41;5028729;28;20108;-58
2022/09/21 10:34:07;;;;;;;8.50;1.52;;;;;;;19.70;56.30;102600.84;5030376;28;20054;-58
2022/09/21 10:36:37;;;;;;;6.18;1.50;;;;;;;20.24;57.04;102598.53;5030346;28;20053;-59
2022/09/21 10:39:27;;;;;;;5.03;1.20;;;;;;;19.91;55.75;102597.53;5030601;28;20507;-59
2022/09/21 10:42:03;;;;;;;4.82;1.52;;;;;;;19.85;52.87;102595.31;5026300;28;20077;-59
2022/09/21 10:44:42;;;;;;;6.68;1.75;;;;;;;19.85;55.09;102592.66;5013008;28;20057;-60
2022/09/21 10:47:18;;;;;;;8.23;2.08;;;;;;;19.30;55.80;102589.69;5011276;28;20055;-59
2022/09/21 10:49:49;;;;;;;6.53;1.27;;;;;;;19.01;55.81;102592.72;5030066;28;20050;-58
2022/09/21 10:52:20;;;;;;;7.97;1.45;;;;;;;19.22;55.76;102587.59;5029923;28;20046;-59
2022/09/21 10:54:51;;;;;;;5.65;1.40;;;;;;;19.02;58.14;102587.25;5030579;28;20607;-58
2022/09/21 10:57:24;;;;;;;5.95;1.58;;;;;;;18.90;55.95;102594.34;5029403;28;20512;-58
2022/09/21 10:59:52;;;;;;;;;;;;;;;18.71;54.63;102586.78;5030334;28;20573;-58
2022/09/21 11:02:28;;;;;;;4.07;0.98;;;;;;;18.28;56.71;102592.53;5027880;28;19948;-59
2022/09/21 11:05:02;;;;;;;6.70;1.40;;;;;;;18.09;57.63;102590.28;5029854;28;20049;-59
2022/09/21 11:07:34;;;;;;;6.88;1.20;;;;;;;17.74;55.94;102588.25;5029952;28;20060;-59
2022/09/21 11:10:13;;;;;;;6.22;0.98;;;;;;;18.03;59.77;102588.06;5029811;28;20045;-58
2022/09/21 11:12:52;;;;;;;6.95;1.30;;;;;;;17.99;61.31;102589.25;5029681;28;20480;-59
2022/09/21 11:15:40;;;;;;;5.70;1.20;;;;;;;18.71;56.58;102584.13;5030548;28;20064;-59
2022/09/21 11:18:18;;;;;;;4.63;1.27;;;;;;;19.50;54.31;102581.03;5032190;28;20052;-60
2022/09/21 11:20:54;;;;;;;5.90;1.08;;;;;;;19.34;53.14;102583.16;5033624;28;20042;-59
2022/09/21 11:23:42;;;;;;;7.68;1.10;;;;;;;19.68;52.65;102584.09;5033676;28;20115;-59
2022/09/21 11:26:16;;;;;;;8.02;1.00;;;;;;;20.10;49.39;102579.09;5033128;28;20049;-59
2022/09/21 11:28:52;;;;;;;3.83;0.73;;;;;;;20.55;47.18;102585.41;5033608;28;20081;-59
2022/09/21 11:31:37;;;;;;;4.40;0.98;;;;;;;20.89;46.19;102569.31;5031604;28;20111;-59
2022/09/21 11:34:20;;;;;;;6.03;0.95;;;;;;;20.56;45.14;102573.72;5033434;28;20428;-61
2022/09/21 11:37:00;;;;;;;5.15;1.00;;;;;;;20.20;44.24;102570.34;5033718;28;20065;-60
2022/09/21 11:39:40;;;;;;;5.68;0.93;;;;;;;20.12;46.62;102570.97;5033918;28;20500;-59
2022/09/21 11:42:22;;;;;;;3.15;0.70;;;;;;;19.96;45.31;102566.00;5032927;28;20103;-60
2022/09/21 11:44:55;;;;;;;3.33;1.05;;;;;;;19.80;47.47;102568.13;5032915;28;20566;-59
2022/09/21 11:47:37;;;;;;;4.55;0.90;;;;;;;20.19;46.69;102560.63;5031004;28;20451;-59